createdAt,value
2018-08-31T00:01:04.634Z,11.30
2018-08-31T00:03:45.207Z,11.20
2018-08-31T00:06:25.531Z,11.10
2018-08-31T00:11:16.166Z,11.00
2018-08-31T00:13:46.125Z,11.00
2018-08-31T00:16:16.365Z,10.90
2018-08-31T00:18:46.819Z,10.80
2018-08-31T00:21:16.947Z,10.70
2018-08-31T00:23:58.090Z,10.60
2018-08-31T00:26:38.492Z,10.50
2018-08-31T00:29:53.482Z,10.50
2018-08-31T00:34:38.746Z,10.40
2018-08-31T00:37:21.092Z,10.40
2018-08-31T00:40:34.136Z,10.30
2018-08-31T00:43:45.162Z,10.20
2018-08-31T00:46:15.403Z,10.20
2018-08-31T00:48:45.544Z,10.20
2018-08-31T00:51:15.555Z,10.20
2018-08-31T00:53:45.630Z,10.20
2018-08-31T00:56:16.653Z,10.20
2018-08-31T00:58:46.698Z,10.20
2018-08-31T01:01:17.101Z,10.10
2018-08-31T01:03:47.574Z,10.00
2018-08-31T01:06:17.919Z,10.00
2018-08-31T01:08:47.811Z,10.00
2018-08-31T01:11:18.094Z,10.00
2018-08-31T01:13:48.343Z,10.00
2018-08-31T01:16:18.247Z,10.00
2018-08-31T01:18:48.766Z,10.00
2018-08-31T01:21:18.606Z,9.90
2018-08-31T01:23:48.691Z,10.00
2018-08-31T01:26:19.349Z,9.80
2018-08-31T01:28:49.410Z,9.90
2018-08-31T01:31:19.440Z,9.90
2018-08-31T01:33:50.079Z,9.80
2018-08-31T01:36:20.172Z,9.80
2018-08-31T01:38:50.486Z,9.80
2018-08-31T01:41:20.625Z,9.80
2018-08-31T01:48:36.402Z,9.80
2018-08-31T01:51:11.993Z,9.70
2018-08-31T01:53:41.895Z,9.80
2018-08-31T01:56:11.858Z,9.70
2018-08-31T01:58:42.452Z,9.70
2018-08-31T02:01:12.663Z,9.70
2018-08-31T02:03:42.803Z,9.80
2018-08-31T02:06:12.949Z,9.80
2018-08-31T02:08:48.302Z,9.80
2018-08-31T02:11:18.290Z,9.70
2018-08-31T02:13:48.534Z,9.80
2018-08-31T02:16:18.507Z,9.80
2018-08-31T02:18:48.350Z,9.80
2018-08-31T02:21:18.552Z,9.80
2018-08-31T02:23:48.943Z,9.70
2018-08-31T02:26:18.831Z,9.70
2018-08-31T02:28:49.863Z,9.70
2018-08-31T02:31:20.388Z,9.60
2018-08-31T02:33:50.491Z,9.60
2018-08-31T02:36:20.406Z,9.60
2018-08-31T02:38:51.107Z,9.60
2018-08-31T02:41:21.441Z,9.60
2018-08-31T02:43:52.299Z,9.50
2018-08-31T02:46:26.968Z,9.50
2018-08-31T02:48:57.221Z,9.50
2018-08-31T02:51:27.227Z,9.50
2018-08-31T02:53:57.123Z,9.50
2018-08-31T02:56:27.183Z,9.50
2018-08-31T02:58:57.470Z,9.50
2018-08-31T03:01:27.325Z,9.50
2018-08-31T03:03:57.490Z,9.50
2018-08-31T03:06:28.027Z,9.50
2018-08-31T03:08:57.971Z,9.50
2018-08-31T03:11:28.218Z,9.50
2018-08-31T03:13:58.451Z,9.50
2018-08-31T03:16:28.656Z,9.50
2018-08-31T03:18:59.090Z,9.50
2018-08-31T03:21:29.478Z,9.50
2018-08-31T03:23:59.699Z,9.50
2018-08-31T03:26:29.576Z,9.60
2018-08-31T03:28:59.855Z,9.60
2018-08-31T03:31:30.373Z,9.50
2018-08-31T03:34:00.810Z,9.60
2018-08-31T03:36:30.664Z,9.50
2018-08-31T03:39:01.555Z,9.60
2018-08-31T03:41:31.878Z,9.50
2018-08-31T03:44:02.096Z,9.50
2018-08-31T03:46:32.474Z,9.40
2018-08-31T03:49:02.650Z,9.40
2018-08-31T03:51:32.775Z,9.30
2018-08-31T03:54:03.370Z,9.40
2018-08-31T03:56:33.636Z,9.30
2018-08-31T03:59:03.923Z,9.30
2018-08-31T04:01:35.122Z,9.30
2018-08-31T04:04:05.796Z,9.30
2018-08-31T04:06:35.984Z,9.30
2018-08-31T04:09:13.662Z,9.30
2018-08-31T04:11:43.502Z,9.30
2018-08-31T04:14:13.825Z,9.30
2018-08-31T04:16:44.011Z,9.20
2018-08-31T04:19:17.675Z,9.30
2018-08-31T04:21:48.061Z,9.30
2018-08-31T04:24:18.777Z,9.30
2018-08-31T04:26:49.045Z,9.30
2018-08-31T04:29:19.358Z,9.30
2018-08-31T04:31:50.356Z,9.40
2018-08-31T04:34:20.780Z,9.30
2018-08-31T04:36:51.443Z,9.40
2018-08-31T04:39:21.939Z,9.30
2018-08-31T04:41:51.979Z,9.40
2018-08-31T04:44:21.988Z,9.30
2018-08-31T04:46:52.883Z,9.30
2018-08-31T04:49:22.834Z,9.30
2018-08-31T04:51:52.987Z,9.30
2018-08-31T04:54:24.008Z,9.40
2018-08-31T04:56:53.916Z,9.40
2018-08-31T04:59:24.085Z,9.50
2018-08-31T05:01:54.403Z,9.50
2018-08-31T05:04:24.567Z,9.50
2018-08-31T05:06:54.478Z,9.50
2018-08-31T05:09:25.766Z,9.50
2018-08-31T05:11:56.140Z,9.60
2018-08-31T05:14:27.063Z,9.60
2018-08-31T05:16:57.346Z,9.60
2018-08-31T05:19:27.258Z,9.70
2018-08-31T05:21:57.280Z,9.70
2018-08-31T05:24:28.018Z,9.70
2018-08-31T05:26:58.033Z,9.80
2018-08-31T05:29:28.353Z,9.80
2018-08-31T05:31:58.890Z,10.00
2018-08-31T05:34:29.076Z,10.00
2018-08-31T05:36:59.140Z,10.00
2018-08-31T05:39:29.095Z,10.10
2018-08-31T05:41:59.058Z,10.20
2018-08-31T05:44:29.491Z,10.30
2018-08-31T05:46:59.981Z,10.40
2018-08-31T05:49:30.148Z,10.40
2018-08-31T05:52:00.858Z,10.50
2018-08-31T05:54:31.186Z,10.60
2018-08-31T05:57:01.407Z,10.80
2018-08-31T05:59:32.471Z,10.90
2018-08-31T06:02:02.867Z,11.00
2018-08-31T06:04:32.748Z,11.10
2018-08-31T06:07:04.258Z,11.20
2018-08-31T06:09:34.433Z,11.40
2018-08-31T06:12:04.440Z,11.50
2018-08-31T06:14:34.806Z,11.60
2018-08-31T06:17:05.078Z,11.80
2018-08-31T06:19:34.918Z,11.90
2018-08-31T06:22:05.158Z,12.00
2018-08-31T06:24:44.115Z,12.20
2018-08-31T06:27:14.006Z,12.30
2018-08-31T06:29:44.083Z,12.40
2018-08-31T06:32:13.950Z,12.50
2018-08-31T06:34:44.151Z,12.60
2018-08-31T06:37:14.717Z,12.70
2018-08-31T06:39:44.660Z,12.90
2018-08-31T06:42:14.955Z,13.00
2018-08-31T06:44:44.802Z,13.10
2018-08-31T06:47:14.679Z,13.20
2018-08-31T06:49:44.551Z,13.30
2018-08-31T06:52:14.407Z,13.50
2018-08-31T06:54:44.248Z,13.60
2018-08-31T06:57:14.602Z,13.70
2018-08-31T06:59:44.546Z,13.80
2018-08-31T07:02:14.397Z,13.90
2018-08-31T07:04:44.677Z,13.90
2018-08-31T07:07:14.561Z,13.90
2018-08-31T07:09:44.537Z,14.10
2018-08-31T07:12:15.018Z,14.20
2018-08-31T07:14:45.639Z,14.30
2018-08-31T07:17:15.467Z,14.50
2018-08-31T07:19:45.310Z,14.60
2018-08-31T07:22:15.531Z,14.80
2018-08-31T07:24:45.571Z,14.80
2018-08-31T07:27:16.333Z,14.90
2018-08-31T07:29:46.560Z,15.00
2018-08-31T07:32:17.384Z,15.10
2018-08-31T07:34:47.779Z,15.20
2018-08-31T07:37:18.004Z,15.10
2018-08-31T07:39:47.897Z,15.10
2018-08-31T07:42:17.911Z,15.30
2018-08-31T07:44:47.767Z,15.40
2018-08-31T07:47:18.644Z,15.60
2018-08-31T07:49:48.488Z,15.60
2018-08-31T07:52:18.694Z,15.60
2018-08-31T07:54:48.719Z,15.60
2018-08-31T07:57:18.579Z,15.70
2018-08-31T07:59:48.772Z,15.80
2018-08-31T08:02:18.624Z,15.90
2018-08-31T08:04:48.507Z,16.00
2018-08-31T08:07:18.777Z,16.10
2018-08-31T08:09:48.635Z,16.30
2018-08-31T08:12:18.475Z,16.40
2018-08-31T08:14:48.837Z,16.50
2018-08-31T08:17:18.691Z,16.60
2018-08-31T08:19:48.734Z,16.50
2018-08-31T08:22:19.187Z,16.50
2018-08-31T08:24:49.119Z,16.70
2018-08-31T08:27:19.287Z,16.70
2018-08-31T08:29:49.134Z,16.70
2018-08-31T08:32:18.999Z,16.80
2018-08-31T08:34:48.882Z,17.00
2018-08-31T08:37:19.303Z,17.30
2018-08-31T08:39:50.039Z,17.40
2018-08-31T08:42:20.050Z,17.30
2018-08-31T08:44:49.879Z,17.20
2018-08-31T08:47:20.193Z,17.40
2018-08-31T08:49:50.057Z,17.70
2018-08-31T08:52:19.956Z,18.00
2018-08-31T08:54:50.276Z,17.90
2018-08-31T08:57:20.136Z,17.80
2018-08-31T08:59:49.989Z,17.70
2018-08-31T09:02:20.296Z,17.80
2018-08-31T09:04:50.163Z,17.90
2018-08-31T09:07:20.551Z,18.10
2018-08-31T09:09:50.862Z,18.30
2018-08-31T09:12:20.779Z,18.40
2018-08-31T09:14:50.651Z,18.60
2018-08-31T09:17:20.588Z,18.50
2018-08-31T09:19:50.611Z,18.30
2018-08-31T09:22:20.444Z,18.20
2018-08-31T09:24:50.851Z,18.50
2018-08-31T09:27:20.800Z,18.60
2018-08-31T09:29:50.922Z,18.50
2018-08-31T09:32:26.129Z,18.50
2018-08-31T09:34:55.974Z,18.40
2018-08-31T09:37:25.819Z,18.40
2018-08-31T09:39:56.111Z,18.70
2018-08-31T09:42:26.190Z,19.10
2018-08-31T09:44:56.062Z,19.00
2018-08-31T09:47:26.403Z,18.90
2018-08-31T09:49:56.251Z,18.70
2018-08-31T09:52:26.118Z,18.60
2018-08-31T09:54:56.271Z,18.70
2018-08-31T09:57:26.143Z,18.60
2018-08-31T09:59:55.982Z,18.60
2018-08-31T10:02:31.275Z,18.70
2018-08-31T10:05:01.095Z,18.70
2018-08-31T10:07:31.013Z,19.10
2018-08-31T10:10:00.859Z,19.30
2018-08-31T10:12:30.736Z,19.50
2018-08-31T10:15:01.007Z,19.20
2018-08-31T10:17:31.015Z,19.40
2018-08-31T10:20:00.851Z,19.50
2018-08-31T10:22:31.188Z,19.50
2018-08-31T10:25:01.158Z,19.50
2018-08-31T10:27:31.078Z,19.50
2018-08-31T10:30:01.584Z,19.10
2018-08-31T10:32:31.471Z,19.30
2018-08-31T10:35:01.355Z,19.40
2018-08-31T10:37:31.712Z,19.60
2018-08-31T10:40:01.605Z,19.70
2018-08-31T10:42:31.480Z,19.80
2018-08-31T10:45:01.348Z,19.90
2018-08-31T10:47:31.222Z,19.90
2018-08-31T10:50:03.524Z,19.90
2018-08-31T10:52:33.734Z,20.00
2018-08-31T10:55:03.567Z,19.60
2018-08-31T10:57:33.416Z,19.00
2018-08-31T11:00:03.618Z,19.00
2018-08-31T11:02:33.474Z,19.30
2018-08-31T11:05:03.374Z,19.30
2018-08-31T11:07:33.203Z,19.00
2018-08-31T11:10:03.059Z,18.60
2018-08-31T11:12:33.545Z,18.60
2018-08-31T11:15:03.473Z,18.80
2018-08-31T11:17:33.347Z,18.90
2018-08-31T11:20:03.731Z,19.00
2018-08-31T11:22:33.592Z,19.10
2018-08-31T11:25:03.603Z,19.20
2018-08-31T11:27:33.487Z,19.30
2018-08-31T11:30:03.475Z,19.70
2018-08-31T11:32:33.632Z,19.80
2018-08-31T11:35:03.891Z,19.60
2018-08-31T11:37:33.721Z,19.90
2018-08-31T11:40:03.750Z,20.10
2018-08-31T11:42:33.944Z,20.40
2018-08-31T11:45:03.979Z,20.80
2018-08-31T11:47:33.855Z,20.60
2018-08-31T11:50:04.168Z,20.50
2018-08-31T11:52:34.031Z,20.30
2018-08-31T11:55:04.010Z,20.40
2018-08-31T11:57:34.221Z,20.80
2018-08-31T12:00:04.277Z,20.50
2018-08-31T12:02:34.403Z,20.60
2018-08-31T12:05:04.551Z,21.00
2018-08-31T12:07:34.446Z,21.60
2018-08-31T12:10:04.373Z,22.00
2018-08-31T12:12:34.222Z,21.60
2018-08-31T12:15:04.152Z,21.30
2018-08-31T12:17:34.179Z,21.10
2018-08-31T12:20:04.203Z,21.00
2018-08-31T12:22:34.638Z,21.00
2018-08-31T12:25:05.684Z,20.80
2018-08-31T12:27:35.581Z,20.90
2018-08-31T12:30:06.736Z,21.60
2018-08-31T12:32:36.579Z,22.20
2018-08-31T12:35:06.498Z,22.30
2018-08-31T12:37:36.457Z,22.70
2018-08-31T12:40:07.004Z,22.50
2018-08-31T12:42:36.919Z,22.10
2018-08-31T12:45:07.488Z,21.00
2018-08-31T12:47:37.402Z,20.00
2018-08-31T12:50:07.475Z,19.80
2018-08-31T12:52:38.375Z,19.70
2018-08-31T12:55:08.546Z,19.60
2018-08-31T12:57:38.583Z,19.50
2018-08-31T13:00:09.987Z,19.40
2018-08-31T13:02:39.823Z,19.40
2018-08-31T13:05:09.739Z,19.40
2018-08-31T13:07:39.991Z,19.40
2018-08-31T13:10:09.867Z,19.40
2018-08-31T13:12:39.772Z,19.80
2018-08-31T13:15:10.138Z,20.50
2018-08-31T13:17:39.994Z,21.40
2018-08-31T13:20:09.864Z,21.90
2018-08-31T13:22:40.305Z,22.10
2018-08-31T13:25:10.387Z,22.10
2018-08-31T13:27:40.270Z,22.20
2018-08-31T13:30:10.130Z,22.40
2018-08-31T13:32:39.971Z,22.60
2018-08-31T13:35:09.862Z,22.20
2018-08-31T13:37:40.095Z,22.30
2018-08-31T13:40:09.962Z,22.20
2018-08-31T13:42:40.632Z,22.40
2018-08-31T13:45:10.792Z,22.20
2018-08-31T13:47:40.759Z,22.00
2018-08-31T13:50:11.979Z,22.30
2018-08-31T13:52:42.015Z,22.50
2018-08-31T13:55:12.085Z,22.80
2018-08-31T13:57:45.657Z,22.70
2018-08-31T14:00:16.707Z,22.70
2018-08-31T14:02:46.533Z,22.90
2018-08-31T14:05:16.805Z,23.00
2018-08-31T14:07:46.671Z,23.50
2018-08-31T14:10:16.578Z,23.60
2018-08-31T14:12:46.460Z,22.70
2018-08-31T14:15:16.727Z,22.70
2018-08-31T14:17:46.798Z,22.00
2018-08-31T14:20:18.163Z,21.80
2018-08-31T14:22:48.019Z,22.50
2018-08-31T14:25:17.871Z,22.30
2018-08-31T14:27:47.739Z,21.20
2018-08-31T14:30:17.674Z,20.20
2018-08-31T14:32:47.678Z,20.10
2018-08-31T14:35:17.602Z,19.90
2018-08-31T14:37:47.480Z,19.80
2018-08-31T14:40:17.452Z,20.00
2018-08-31T14:42:47.351Z,19.90
2018-08-31T14:45:17.391Z,20.00
2018-08-31T14:47:47.919Z,20.20
2018-08-31T14:50:18.862Z,20.30
2018-08-31T14:52:48.954Z,20.20
2018-08-31T14:55:20.135Z,20.40
2018-08-31T14:57:50.259Z,20.80
2018-08-31T15:00:20.265Z,20.70
2018-08-31T15:02:50.203Z,20.40
2018-08-31T15:05:21.022Z,20.20
2018-08-31T15:07:50.963Z,20.20
2018-08-31T15:10:21.376Z,20.50
2018-08-31T15:12:51.324Z,20.70
2018-08-31T15:15:21.335Z,20.90
2018-08-31T15:17:51.451Z,21.00
2018-08-31T15:20:21.364Z,21.20
2018-08-31T15:22:51.311Z,21.40
2018-08-31T15:25:21.325Z,21.60
2018-08-31T15:27:51.931Z,21.60
2018-08-31T15:30:22.157Z,21.40
2018-08-31T15:32:52.538Z,21.10
2018-08-31T15:35:22.960Z,21.00
2018-08-31T15:37:53.920Z,20.90
2018-08-31T15:40:23.878Z,21.10
2018-08-31T15:42:53.960Z,21.20
2018-08-31T15:45:28.400Z,21.00
2018-08-31T15:47:58.742Z,21.00
2018-08-31T15:50:29.667Z,20.80
2018-08-31T15:53:00.818Z,20.70
2018-08-31T15:55:31.892Z,20.40
2018-08-31T15:58:02.760Z,20.30
2018-08-31T16:00:35.055Z,20.20
2018-08-31T16:03:07.764Z,20.20
2018-08-31T16:05:39.707Z,20.60
2018-08-31T16:08:10.399Z,20.80
2018-08-31T16:10:41.991Z,21.40
2018-08-31T16:13:18.080Z,22.20
2018-08-31T16:15:48.890Z,22.80
2018-08-31T16:18:20.185Z,22.10
2018-08-31T16:20:52.044Z,22.20
2018-08-31T16:23:23.021Z,22.30
2018-08-31T16:25:53.405Z,22.60
2018-08-31T16:28:23.268Z,22.70
2018-08-31T16:30:56.468Z,22.70
2018-08-31T16:33:26.808Z,22.40
2018-08-31T16:35:57.321Z,22.30
2018-08-31T16:38:27.555Z,22.40
2018-08-31T16:40:57.407Z,22.40
2018-08-31T16:43:31.031Z,22.40
2018-08-31T16:46:01.423Z,22.20
2018-08-31T16:48:31.475Z,22.30
2018-08-31T16:51:01.327Z,22.10
2018-08-31T16:53:31.213Z,21.40
2018-08-31T16:56:01.127Z,21.50
2018-08-31T16:58:31.396Z,21.50
2018-08-31T17:01:01.310Z,20.80
2018-08-31T17:03:31.172Z,20.20
2018-08-31T17:06:01.035Z,19.90
2018-08-31T17:08:31.334Z,19.90
2018-08-31T17:11:01.235Z,20.20
2018-08-31T17:13:31.069Z,20.20
2018-08-31T17:16:01.714Z,19.50
2018-08-31T17:18:31.661Z,19.10
2018-08-31T17:21:01.524Z,19.00
2018-08-31T17:23:31.436Z,19.40
2018-08-31T17:27:25.487Z,19.90
2018-08-31T17:29:55.955Z,20.10
2018-08-31T17:32:30.784Z,20.20
2018-08-31T17:35:05.571Z,20.10
2018-08-31T17:37:37.508Z,19.50
2018-08-31T17:40:07.392Z,19.10
2018-08-31T17:42:39.755Z,19.00
2018-08-31T17:45:11.303Z,18.90
2018-08-31T17:47:41.153Z,18.70
2018-08-31T17:50:11.033Z,18.60
2018-08-31T17:52:41.554Z,18.50
2018-08-31T17:55:11.404Z,18.40
2018-08-31T17:57:41.386Z,18.20
2018-08-31T18:00:11.718Z,18.00
2018-08-31T18:02:41.898Z,17.90
2018-08-31T18:05:12.088Z,17.80
2018-08-31T18:07:41.967Z,17.60
2018-08-31T18:10:12.132Z,17.40
2018-08-31T18:12:42.455Z,17.20
2018-08-31T18:15:12.324Z,17.00
2018-08-31T18:17:42.256Z,16.90
2018-08-31T18:20:12.468Z,16.80
2018-08-31T18:22:42.347Z,16.70
2018-08-31T18:25:12.214Z,16.60
2018-08-31T18:27:42.074Z,16.40
2018-08-31T18:30:11.939Z,16.40
2018-08-31T18:32:41.818Z,16.30
2018-08-31T18:35:12.023Z,16.30
2018-08-31T18:37:41.871Z,16.20
2018-08-31T18:40:11.724Z,16.10
2018-08-31T18:42:42.167Z,16.10
2018-08-31T18:45:12.027Z,16.00
2018-08-31T18:47:42.367Z,15.90
2018-08-31T18:50:12.311Z,15.90
2018-08-31T18:52:42.355Z,15.80
2018-08-31T18:55:12.494Z,15.70
2018-08-31T18:57:42.394Z,15.70
2018-08-31T19:00:12.247Z,15.60
2018-08-31T19:02:42.558Z,15.50
2018-08-31T19:05:12.486Z,15.50
2018-08-31T19:07:42.454Z,15.40
2018-08-31T19:10:12.698Z,15.40
2018-08-31T19:12:42.614Z,15.40
2018-08-31T19:15:12.462Z,15.40
2018-08-31T19:17:42.704Z,15.30
2018-08-31T19:20:12.570Z,15.30
2018-08-31T19:22:42.462Z,15.30
2018-08-31T19:25:12.337Z,15.30
2018-08-31T19:27:42.246Z,15.30
2018-08-31T19:30:12.539Z,15.20
2018-08-31T19:32:42.392Z,15.20
2018-08-31T19:35:12.251Z,15.20
2018-08-31T19:37:42.511Z,15.10
2018-08-31T19:40:12.404Z,15.00
2018-08-31T19:42:42.309Z,14.90
2018-08-31T19:45:12.648Z,14.80
2018-08-31T19:47:42.487Z,14.80
2018-08-31T19:50:12.371Z,14.80
2018-08-31T19:52:42.770Z,14.80
2018-08-31T19:55:12.747Z,14.80
2018-08-31T19:57:42.595Z,14.80
2018-08-31T20:00:12.479Z,14.80
2018-08-31T20:02:42.723Z,14.80
2018-08-31T20:05:12.979Z,14.80
2018-08-31T20:07:42.919Z,14.70
2018-08-31T20:10:13.393Z,14.70
2018-08-31T20:12:44.035Z,14.70
2018-08-31T20:15:13.887Z,14.60
2018-08-31T20:17:43.760Z,14.60
2018-08-31T20:20:15.154Z,14.60
2018-08-31T20:22:45.179Z,14.60
2018-08-31T20:25:15.021Z,14.60
2018-08-31T20:27:45.519Z,14.50
2018-08-31T20:30:15.464Z,14.50
2018-08-31T20:32:45.342Z,14.50
2018-08-31T20:35:15.508Z,14.50
2018-08-31T20:37:45.606Z,14.50
2018-08-31T20:40:16.111Z,14.40
2018-08-31T20:42:46.293Z,14.40
2018-08-31T20:45:16.276Z,14.50
2018-08-31T20:47:46.151Z,14.40
2018-08-31T20:50:15.983Z,14.30
2018-08-31T20:52:45.851Z,14.20
2018-08-31T20:55:15.722Z,14.20
2018-08-31T20:57:45.548Z,14.20
2018-08-31T21:00:15.375Z,14.10
2018-08-31T21:02:45.871Z,14.10
2018-08-31T21:05:15.745Z,14.00
2018-08-31T21:07:45.591Z,14.00
2018-08-31T21:10:15.678Z,13.90
2018-08-31T21:12:45.854Z,13.80
2018-08-31T21:15:15.958Z,13.70
2018-08-31T21:17:46.151Z,13.60
2018-08-31T21:20:16.508Z,13.60
2018-08-31T21:22:46.927Z,13.50
2018-08-31T21:25:16.844Z,13.40
2018-08-31T21:27:46.942Z,13.40
2018-08-31T21:30:17.485Z,13.30
2018-08-31T21:32:47.724Z,13.20
2018-08-31T21:35:17.999Z,13.20
2018-08-31T21:37:48.360Z,13.20
2018-08-31T21:40:18.213Z,13.10
2018-08-31T21:42:48.031Z,13.10
2018-08-31T21:45:18.323Z,13.00
2018-08-31T21:47:48.170Z,13.00
2018-08-31T21:50:18.285Z,12.90
2018-08-31T21:52:48.868Z,12.90
2018-08-31T21:55:18.862Z,12.80
2018-08-31T21:57:48.940Z,12.80
2018-08-31T22:00:20.915Z,12.70
2018-08-31T22:02:51.466Z,12.70
2018-08-31T22:05:21.359Z,12.70
2018-08-31T22:07:51.640Z,12.70
2018-08-31T22:10:21.694Z,12.70
2018-08-31T22:12:51.724Z,12.70
2018-08-31T22:15:26.687Z,12.80
2018-08-31T22:17:56.957Z,12.80
2018-08-31T22:20:26.840Z,12.90
2018-08-31T22:22:56.715Z,13.00
2018-08-31T22:25:26.566Z,13.00
2018-08-31T22:27:56.888Z,13.00
2018-08-31T22:30:26.802Z,13.00
2018-08-31T22:32:56.680Z,12.90
2018-08-31T22:35:26.944Z,12.90
2018-08-31T22:37:56.851Z,12.80
2018-08-31T22:40:26.974Z,12.80
2018-08-31T22:42:57.296Z,12.70
2018-08-31T22:45:27.135Z,12.60
2018-08-31T22:47:57.538Z,12.50
2018-08-31T22:50:27.874Z,12.50
2018-08-31T22:52:57.711Z,12.40
2018-08-31T22:55:28.123Z,12.30
2018-08-31T22:57:58.754Z,12.30
2018-08-31T23:00:28.717Z,12.30
2018-08-31T23:02:58.575Z,12.20
2018-08-31T23:05:28.898Z,12.20
2018-08-31T23:08:03.062Z,12.10
2018-08-31T23:10:33.625Z,12.10
2018-08-31T23:13:03.796Z,12.10
2018-08-31T23:15:34.495Z,12.10
2018-08-31T23:18:04.827Z,12.00
2018-08-31T23:20:34.672Z,12.00
2018-08-31T23:23:09.501Z,12.00
2018-08-31T23:25:44.883Z,11.90
2018-08-31T23:28:14.717Z,11.90
2018-08-31T23:30:44.633Z,11.90
2018-08-31T23:33:14.669Z,12.00
2018-08-31T23:35:44.546Z,12.00
2018-08-31T23:38:14.494Z,12.00
2018-08-31T23:40:44.884Z,12.00
2018-08-31T23:43:14.762Z,12.00
2018-08-31T23:45:44.640Z,12.00
2018-08-31T23:48:15.355Z,12.00
2018-08-31T23:50:45.167Z,11.90
2018-08-31T23:53:15.094Z,11.90
2018-08-31T23:55:45.391Z,11.80
2018-08-31T23:58:15.340Z,11.80
